sensor_id;sensor_type;location;lat;lon;timestamp;temperature;humidity
2577;DHT22;1298;51.252;6.802;2023-05-09T00:02:09;16.30;99.90
2577;DHT22;1298;51.252;6.802;2023-05-09T00:04:56;16.20;99.90
2577;DHT22;1298;51.252;6.802;2023-05-09T00:07:42;16.20;99.90
2577;DHT22;1298;51.252;6.802;2023-05-09T00:10:27;16.20;99.90
2577;DHT22;1298;51.252;6.802;2023-05-09T00:13:12;16.20;99.90
2577;DHT22;1298;51.252;6.802;2023-05-09T00:15:57;16.20;99.90
2577;DHT22;1298;51.252;6.802;2023-05-09T00:18:42;16.20;99.90
2577;DHT22;1298;51.252;6.802;2023-05-09T00:21:29;16.20;99.90
2577;DHT22;1298;51.252;6.802;2023-05-09T00:24:14;16.20;99.90
2577;DHT22;1298;51.252;6.802;2023-05-09T00:26:59;16.20;99.90
2577;DHT22;1298;51.252;6.802;2023-05-09T00:29:44;16.20;99.90
2577;DHT22;1298;51.252;6.802;2023-05-09T00:32:29;16.20;99.90
2577;DHT22;1298;51.252;6.802;2023-05-09T00:35:16;16.10;99.90
2577;DHT22;1298;51.252;6.802;2023-05-09T00:38:02;16.10;99.90
2577;DHT22;1298;51.252;6.802;2023-05-09T00:40:48;16.10;99.90
2577;DHT22;1298;51.252;6.802;2023-05-09T00:43:33;16.20;99.90
2577;DHT22;1298;51.252;6.802;2023-05-09T00:46:18;16.20;99.90
2577;DHT22;1298;51.252;6.802;2023-05-09T00:49:03;16.20;99.90
2577;DHT22;1298;51.252;6.802;2023-05-09T00:51:49;16.20;99.90
2577;DHT22;1298;51.252;6.802;2023-05-09T00:54:35;16.20;99.90
2577;DHT22;1298;51.252;6.802;2023-05-09T00:57:20;16.20;99.90
2577;DHT22;1298;51.252;6.802;2023-05-09T01:00:07;16.30;99.90
2577;DHT22;1298;51.252;6.802;2023-05-09T01:02:55;16.30;99.90
2577;DHT22;1298;51.252;6.802;2023-05-09T01:05:43;16.30;99.90
2577;DHT22;1298;51.252;6.802;2023-05-09T01:08:33;16.20;99.90
2577;DHT22;1298;51.252;6.802;2023-05-09T01:11:24;16.30;99.90
2577;DHT22;1298;51.252;6.802;2023-05-09T01:14:14;16.20;99.90
2577;DHT22;1298;51.252;6.802;2023-05-09T01:17:10;16.20;99.90
2577;DHT22;1298;51.252;6.802;2023-05-09T01:19:59;16.20;99.90
2577;DHT22;1298;51.252;6.802;2023-05-09T01:22:51;16.20;99.90
2577;DHT22;1298;51.252;6.802;2023-05-09T01:25:48;16.20;99.90
2577;DHT22;1298;51.252;6.802;2023-05-09T01:28:44;16.30;99.90
2577;DHT22;1298;51.252;6.802;2023-05-09T01:31:31;16.20;99.90
2577;DHT22;1298;51.252;6.802;2023-05-09T01:34:18;16.20;99.90
2577;DHT22;1298;51.252;6.802;2023-05-09T01:37:05;16.20;99.90
2577;DHT22;1298;51.252;6.802;2023-05-09T01:39:52;16.20;99.90
2577;DHT22;1298;51.252;6.802;2023-05-09T01:42:40;16.30;99.90
2577;DHT22;1298;51.252;6.802;2023-05-09T01:45:26;16.30;99.90
2577;DHT22;1298;51.252;6.802;2023-05-09T01:48:14;16.30;99.90
2577;DHT22;1298;51.252;6.802;2023-05-09T01:50:59;16.30;99.90
2577;DHT22;1298;51.252;6.802;2023-05-09T01:53:45;16.40;99.90
2577;DHT22;1298;51.252;6.802;2023-05-09T01:56:32;16.40;99.90
2577;DHT22;1298;51.252;6.802;2023-05-09T01:59:19;16.30;99.90
2577;DHT22;1298;51.252;6.802;2023-05-09T02:02:05;16.40;99.90
2577;DHT22;1298;51.252;6.802;2023-05-09T02:04:52;16.40;99.90
2577;DHT22;1298;51.252;6.802;2023-05-09T02:07:39;16.40;99.90
2577;DHT22;1298;51.252;6.802;2023-05-09T02:10:26;16.40;99.90
2577;DHT22;1298;51.252;6.802;2023-05-09T02:13:11;16.40;99.90
2577;DHT22;1298;51.252;6.802;2023-05-09T02:15:57;16.30;99.90
2577;DHT22;1298;51.252;6.802;2023-05-09T02:18:43;16.30;99.90
2577;DHT22;1298;51.252;6.802;2023-05-09T02:21:29;16.30;99.90
2577;DHT22;1298;51.252;6.802;2023-05-09T02:24:14;16.30;99.90
2577;DHT22;1298;51.252;6.802;2023-05-09T02:27:00;16.30;99.90
2577;DHT22;1298;51.252;6.802;2023-05-09T02:29:48;16.30;99.90
2577;DHT22;1298;51.252;6.802;2023-05-09T02:32:34;16.30;99.90
2577;DHT22;1298;51.252;6.802;2023-05-09T02:35:21;16.40;99.90
2577;DHT22;1298;51.252;6.802;2023-05-09T02:38:08;16.40;99.90
2577;DHT22;1298;51.252;6.802;2023-05-09T02:40:54;16.40;99.90
2577;DHT22;1298;51.252;6.802;2023-05-09T02:43:39;16.40;99.90
2577;DHT22;1298;51.252;6.802;2023-05-09T02:46:25;16.40;99.90
2577;DHT22;1298;51.252;6.802;2023-05-09T02:49:10;16.40;99.90
2577;DHT22;1298;51.252;6.802;2023-05-09T02:51:55;16.40;99.90
2577;DHT22;1298;51.252;6.802;2023-05-09T02:54:41;16.40;99.90
2577;DHT22;1298;51.252;6.802;2023-05-09T02:57:26;16.50;99.90
2577;DHT22;1298;51.252;6.802;2023-05-09T03:00:12;16.50;99.90
2577;DHT22;1298;51.252;6.802;2023-05-09T03:02:58;16.40;99.90
2577;DHT22;1298;51.252;6.802;2023-05-09T03:05:43;16.40;99.90
2577;DHT22;1298;51.252;6.802;2023-05-09T03:08:28;16.40;99.90
2577;DHT22;1298;51.252;6.802;2023-05-09T03:11:15;16.30;99.90
2577;DHT22;1298;51.252;6.802;2023-05-09T03:14:00;16.30;99.90
2577;DHT22;1298;51.252;6.802;2023-05-09T03:16:45;16.30;99.90
2577;DHT22;1298;51.252;6.802;2023-05-09T03:19:31;16.30;99.90
2577;DHT22;1298;51.252;6.802;2023-05-09T03:22:16;16.30;99.90
2577;DHT22;1298;51.252;6.802;2023-05-09T03:25:01;16.30;99.90
2577;DHT22;1298;51.252;6.802;2023-05-09T03:27:48;16.30;99.90
2577;DHT22;1298;51.252;6.802;2023-05-09T03:30:33;16.30;99.90
2577;DHT22;1298;51.252;6.802;2023-05-09T03:33:18;16.40;99.90
2577;DHT22;1298;51.252;6.802;2023-05-09T03:36:03;16.40;99.90
2577;DHT22;1298;51.252;6.802;2023-05-09T03:38:49;16.30;99.90
2577;DHT22;1298;51.252;6.802;2023-05-09T03:41:34;16.30;99.90
2577;DHT22;1298;51.252;6.802;2023-05-09T03:44:21;16.30;99.90
2577;DHT22;1298;51.252;6.802;2023-05-09T03:47:06;16.30;99.90
2577;DHT22;1298;51.252;6.802;2023-05-09T03:49:51;16.20;99.90
2577;DHT22;1298;51.252;6.802;2023-05-09T03:52:36;16.20;99.90
2577;DHT22;1298;51.252;6.802;2023-05-09T03:55:22;16.20;99.90
2577;DHT22;1298;51.252;6.802;2023-05-09T03:58:07;16.20;99.90
2577;DHT22;1298;51.252;6.802;2023-05-09T04:00:54;16.20;99.90
2577;DHT22;1298;51.252;6.802;2023-05-09T04:03:39;16.30;99.90
2577;DHT22;1298;51.252;6.802;2023-05-09T04:06:25;16.20;99.90
2577;DHT22;1298;51.252;6.802;2023-05-09T04:09:10;16.30;99.90
2577;DHT22;1298;51.252;6.802;2023-05-09T04:11:55;16.30;99.90
2577;DHT22;1298;51.252;6.802;2023-05-09T04:14:40;16.30;99.90
2577;DHT22;1298;51.252;6.802;2023-05-09T04:17:27;16.30;99.90
2577;DHT22;1298;51.252;6.802;2023-05-09T04:20:13;16.30;99.90
2577;DHT22;1298;51.252;6.802;2023-05-09T04:22:58;16.30;99.90
2577;DHT22;1298;51.252;6.802;2023-05-09T04:25:43;16.30;99.90
2577;DHT22;1298;51.252;6.802;2023-05-09T04:28:28;16.30;99.90
2577;DHT22;1298;51.252;6.802;2023-05-09T04:31:14;16.30;99.90
2577;DHT22;1298;51.252;6.802;2023-05-09T04:34:01;16.30;99.90
2577;DHT22;1298;51.252;6.802;2023-05-09T04:36:46;16.30;99.90
2577;DHT22;1298;51.252;6.802;2023-05-09T04:39:32;16.30;99.90
2577;DHT22;1298;51.252;6.802;2023-05-09T04:42:16;16.30;99.90
2577;DHT22;1298;51.252;6.802;2023-05-09T04:45:02;16.30;99.90
2577;DHT22;1298;51.252;6.802;2023-05-09T04:47:47;16.30;99.90
2577;DHT22;1298;51.252;6.802;2023-05-09T04:50:34;16.30;99.90
2577;DHT22;1298;51.252;6.802;2023-05-09T04:53:19;16.30;99.90
2577;DHT22;1298;51.252;6.802;2023-05-09T04:56:05;16.30;99.90
2577;DHT22;1298;51.252;6.802;2023-05-09T04:58:50;16.30;99.90
2577;DHT22;1298;51.252;6.802;2023-05-09T05:01:35;16.30;99.90
2577;DHT22;1298;51.252;6.802;2023-05-09T05:04:20;16.40;99.90
2577;DHT22;1298;51.252;6.802;2023-05-09T05:07:07;16.40;99.90
2577;DHT22;1298;51.252;6.802;2023-05-09T05:09:52;16.40;99.90
2577;DHT22;1298;51.252;6.802;2023-05-09T05:12:37;16.40;99.90
2577;DHT22;1298;51.252;6.802;2023-05-09T05:15:22;16.40;99.90
2577;DHT22;1298;51.252;6.802;2023-05-09T05:18:07;16.50;99.90
2577;DHT22;1298;51.252;6.802;2023-05-09T05:20:52;16.50;99.90
2577;DHT22;1298;51.252;6.802;2023-05-09T05:23:39;16.60;99.90
2577;DHT22;1298;51.252;6.802;2023-05-09T05:26:25;16.60;99.90
2577;DHT22;1298;51.252;6.802;2023-05-09T05:29:10;16.70;99.90
2577;DHT22;1298;51.252;6.802;2023-05-09T05:31:55;16.90;99.90
2577;DHT22;1298;51.252;6.802;2023-05-09T05:34:40;17.00;99.90
2577;DHT22;1298;51.252;6.802;2023-05-09T05:37:25;17.00;99.90
2577;DHT22;1298;51.252;6.802;2023-05-09T05:40:12;17.00;99.90
2577;DHT22;1298;51.252;6.802;2023-05-09T05:42:57;17.10;99.90
2577;DHT22;1298;51.252;6.802;2023-05-09T05:45:43;17.10;99.90
2577;DHT22;1298;51.252;6.802;2023-05-09T05:48:28;17.20;99.90
2577;DHT22;1298;51.252;6.802;2023-05-09T05:51:14;17.30;99.90
2577;DHT22;1298;51.252;6.802;2023-05-09T05:54:00;17.50;99.90
2577;DHT22;1298;51.252;6.802;2023-05-09T05:56:46;17.70;99.90
2577;DHT22;1298;51.252;6.802;2023-05-09T05:59:31;17.80;99.90
2577;DHT22;1298;51.252;6.802;2023-05-09T06:02:17;18.00;99.90
2577;DHT22;1298;51.252;6.802;2023-05-09T06:05:02;18.10;99.90
2577;DHT22;1298;51.252;6.802;2023-05-09T06:07:47;18.10;99.90
2577;DHT22;1298;51.252;6.802;2023-05-09T06:10:32;18.20;99.90
2577;DHT22;1298;51.252;6.802;2023-05-09T06:13:19;18.00;99.90
2577;DHT22;1298;51.252;6.802;2023-05-09T06:16:05;17.90;99.90
2577;DHT22;1298;51.252;6.802;2023-05-09T06:18:50;17.80;99.90
2577;DHT22;1298;51.252;6.802;2023-05-09T06:21:36;17.80;99.90
2577;DHT22;1298;51.252;6.802;2023-05-09T06:24:21;17.80;99.90
2577;DHT22;1298;51.252;6.802;2023-05-09T06:27:06;17.80;99.90
2577;DHT22;1298;51.252;6.802;2023-05-09T06:29:53;18.00;99.90
2577;DHT22;1298;51.252;6.802;2023-05-09T06:32:38;18.20;99.90
2577;DHT22;1298;51.252;6.802;2023-05-09T06:35:23;18.20;99.90
2577;DHT22;1298;51.252;6.802;2023-05-09T06:38:08;18.30;99.90
2577;DHT22;1298;51.252;6.802;2023-05-09T06:40:53;18.20;99.90
2577;DHT22;1298;51.252;6.802;2023-05-09T06:43:38;18.10;99.90
2577;DHT22;1298;51.252;6.802;2023-05-09T06:46:25;18.10;99.90
2577;DHT22;1298;51.252;6.802;2023-05-09T06:49:10;18.10;99.90
2577;DHT22;1298;51.252;6.802;2023-05-09T06:51:56;18.30;99.90
2577;DHT22;1298;51.252;6.802;2023-05-09T06:54:42;18.40;99.90
2577;DHT22;1298;51.252;6.802;2023-05-09T06:57:27;18.40;99.90
2577;DHT22;1298;51.252;6.802;2023-05-09T07:00:13;18.50;99.90
2577;DHT22;1298;51.252;6.802;2023-05-09T07:03:00;18.70;99.90
2577;DHT22;1298;51.252;6.802;2023-05-09T07:05:45;18.80;99.90
2577;DHT22;1298;51.252;6.802;2023-05-09T07:08:30;18.90;99.90
2577;DHT22;1298;51.252;6.802;2023-05-09T07:11:16;18.90;99.90
2577;DHT22;1298;51.252;6.802;2023-05-09T07:14:01;18.90;99.90
2577;DHT22;1298;51.252;6.802;2023-05-09T07:16:46;18.90;99.90
2577;DHT22;1298;51.252;6.802;2023-05-09T07:19:32;18.90;99.90
2577;DHT22;1298;51.252;6.802;2023-05-09T07:22:18;18.90;99.90
2577;DHT22;1298;51.252;6.802;2023-05-09T07:25:03;18.80;99.90
2577;DHT22;1298;51.252;6.802;2023-05-09T07:27:49;18.80;99.90
2577;DHT22;1298;51.252;6.802;2023-05-09T07:30:34;18.90;99.90
2577;DHT22;1298;51.252;6.802;2023-05-09T07:33:19;18.90;99.90
2577;DHT22;1298;51.252;6.802;2023-05-09T07:36:06;18.90;99.90
2577;DHT22;1298;51.252;6.802;2023-05-09T07:38:56;18.80;99.90
2577;DHT22;1298;51.252;6.802;2023-05-09T07:41:41;18.80;99.90
2577;DHT22;1298;51.252;6.802;2023-05-09T07:44:26;18.80;99.90
2577;DHT22;1298;51.252;6.802;2023-05-09T07:47:11;18.80;99.90
2577;DHT22;1298;51.252;6.802;2023-05-09T07:49:56;18.90;99.90
2577;DHT22;1298;51.252;6.802;2023-05-09T07:52:43;18.90;99.90
2577;DHT22;1298;51.252;6.802;2023-05-09T07:55:28;18.80;99.90
2577;DHT22;1298;51.252;6.802;2023-05-09T07:58:13;18.90;99.90
2577;DHT22;1298;51.252;6.802;2023-05-09T08:00:59;19.00;99.90
2577;DHT22;1298;51.252;6.802;2023-05-09T08:03:44;19.00;99.90
2577;DHT22;1298;51.252;6.802;2023-05-09T08:06:29;19.10;99.90
2577;DHT22;1298;51.252;6.802;2023-05-09T08:09:16;19.20;99.90
2577;DHT22;1298;51.252;6.802;2023-05-09T08:12:02;19.40;99.90
2577;DHT22;1298;51.252;6.802;2023-05-09T08:14:47;19.50;99.90
2577;DHT22;1298;51.252;6.802;2023-05-09T08:17:33;19.60;99.90
2577;DHT22;1298;51.252;6.802;2023-05-09T08:20:18;19.70;99.90
2577;DHT22;1298;51.252;6.802;2023-05-09T08:23:03;19.80;99.90
2577;DHT22;1298;51.252;6.802;2023-05-09T08:25:52;19.80;99.90
2577;DHT22;1298;51.252;6.802;2023-05-09T08:28:38;19.90;99.90
2577;DHT22;1298;51.252;6.802;2023-05-09T08:31:23;19.80;99.90
2577;DHT22;1298;51.252;6.802;2023-05-09T08:34:10;19.90;99.90
2577;DHT22;1298;51.252;6.802;2023-05-09T08:36:55;20.10;99.90
2577;DHT22;1298;51.252;6.802;2023-05-09T08:39:40;20.10;99.90
2577;DHT22;1298;51.252;6.802;2023-05-09T08:42:26;20.10;99.90
2577;DHT22;1298;51.252;6.802;2023-05-09T08:45:12;20.10;99.90
2577;DHT22;1298;51.252;6.802;2023-05-09T08:47:58;20.20;99.90
2577;DHT22;1298;51.252;6.802;2023-05-09T08:50:46;20.30;99.90
2577;DHT22;1298;51.252;6.802;2023-05-09T08:53:32;20.40;99.90
2577;DHT22;1298;51.252;6.802;2023-05-09T08:56:18;20.60;99.90
2577;DHT22;1298;51.252;6.802;2023-05-09T08:59:05;20.80;99.90
2577;DHT22;1298;51.252;6.802;2023-05-09T09:01:52;21.00;99.90
2577;DHT22;1298;51.252;6.802;2023-05-09T09:04:37;21.30;99.90
2577;DHT22;1298;51.252;6.802;2023-05-09T09:07:23;21.70;99.90
2577;DHT22;1298;51.252;6.802;2023-05-09T09:10:09;21.80;99.90
2577;DHT22;1298;51.252;6.802;2023-05-09T09:12:55;22.00;99.90
2577;DHT22;1298;51.252;6.802;2023-05-09T09:15:44;22.10;99.90
2577;DHT22;1298;51.252;6.802;2023-05-09T09:18:29;22.10;99.90
2577;DHT22;1298;51.252;6.802;2023-05-09T09:21:17;22.10;99.90
2577;DHT22;1298;51.252;6.802;2023-05-09T09:24:04;22.40;99.90
2577;DHT22;1298;51.252;6.802;2023-05-09T09:26:50;22.60;99.90
2577;DHT22;1298;51.252;6.802;2023-05-09T09:29:36;22.70;99.90
2577;DHT22;1298;51.252;6.802;2023-05-09T09:32:24;22.70;99.90
2577;DHT22;1298;51.252;6.802;2023-05-09T09:35:16;22.90;99.90
2577;DHT22;1298;51.252;6.802;2023-05-09T09:38:03;22.80;99.90
2577;DHT22;1298;51.252;6.802;2023-05-09T09:40:53;22.70;99.90
2577;DHT22;1298;51.252;6.802;2023-05-09T09:43:39;22.70;99.90
2577;DHT22;1298;51.252;6.802;2023-05-09T09:46:29;22.50;99.90
2577;DHT22;1298;51.252;6.802;2023-05-09T09:49:25;22.60;99.90
2577;DHT22;1298;51.252;6.802;2023-05-09T09:52:11;22.60;99.90
2577;DHT22;1298;51.252;6.802;2023-05-09T09:55:06;22.70;99.90
2577;DHT22;1298;51.252;6.802;2023-05-09T09:57:52;22.80;99.90
2577;DHT22;1298;51.252;6.802;2023-05-09T10:00:37;22.90;99.90
2577;DHT22;1298;51.252;6.802;2023-05-09T10:03:22;23.10;99.90
2577;DHT22;1298;51.252;6.802;2023-05-09T10:06:12;23.20;99.90
2577;DHT22;1298;51.252;6.802;2023-05-09T10:08:58;23.20;99.90
2577;DHT22;1298;51.252;6.802;2023-05-09T10:11:43;22.90;99.90
2577;DHT22;1298;51.252;6.802;2023-05-09T10:14:31;23.00;99.90
2577;DHT22;1298;51.252;6.802;2023-05-09T10:17:16;22.80;99.90
2577;DHT22;1298;51.252;6.802;2023-05-09T10:20:04;22.70;99.90
2577;DHT22;1298;51.252;6.802;2023-05-09T10:22:53;22.70;99.90
2577;DHT22;1298;51.252;6.802;2023-05-09T10:25:43;22.70;99.90
2577;DHT22;1298;51.252;6.802;2023-05-09T10:28:30;22.90;99.90
2577;DHT22;1298;51.252;6.802;2023-05-09T10:31:20;23.00;99.90
2577;DHT22;1298;51.252;6.802;2023-05-09T10:34:07;22.70;99.90
2577;DHT22;1298;51.252;6.802;2023-05-09T10:36:53;22.80;99.90
2577;DHT22;1298;51.252;6.802;2023-05-09T10:39:40;22.90;99.90
2577;DHT22;1298;51.252;6.802;2023-05-09T10:42:26;23.20;99.90
2577;DHT22;1298;51.252;6.802;2023-05-09T10:45:13;23.00;99.90
2577;DHT22;1298;51.252;6.802;2023-05-09T10:47:58;23.20;99.90
2577;DHT22;1298;51.252;6.802;2023-05-09T10:50:44;23.20;99.90
2577;DHT22;1298;51.252;6.802;2023-05-09T10:56:35;23.40;99.90
2577;DHT22;1298;51.252;6.802;2023-05-09T10:59:32;23.70;99.90
2577;DHT22;1298;51.252;6.802;2023-05-09T11:02:18;23.80;99.90
2577;DHT22;1298;51.252;6.802;2023-05-09T11:05:14;23.80;99.90
2577;DHT22;1298;51.252;6.802;2023-05-09T11:08:19;23.80;99.90
2577;DHT22;1298;51.252;6.802;2023-05-09T11:11:04;23.80;99.90
2577;DHT22;1298;51.252;6.802;2023-05-09T11:13:53;23.80;99.90
2577;DHT22;1298;51.252;6.802;2023-05-09T11:16:55;23.90;99.90
2577;DHT22;1298;51.252;6.802;2023-05-09T11:22:48;24.00;99.90
2577;DHT22;1298;51.252;6.802;2023-05-09T11:25:37;24.30;99.90
2577;DHT22;1298;51.252;6.802;2023-05-09T11:28:26;24.40;99.90
2577;DHT22;1298;51.252;6.802;2023-05-09T11:31:14;24.30;99.90
2577;DHT22;1298;51.252;6.802;2023-05-09T11:34:00;24.30;99.90
2577;DHT22;1298;51.252;6.802;2023-05-09T11:36:47;23.80;99.90
2577;DHT22;1298;51.252;6.802;2023-05-09T11:39:33;23.80;99.90
2577;DHT22;1298;51.252;6.802;2023-05-09T11:42:18;23.90;99.90
2577;DHT22;1298;51.252;6.802;2023-05-09T11:45:03;23.90;99.90
2577;DHT22;1298;51.252;6.802;2023-05-09T11:47:51;23.70;99.90
2577;DHT22;1298;51.252;6.802;2023-05-09T11:50:37;23.90;99.90
2577;DHT22;1298;51.252;6.802;2023-05-09T11:53:24;24.00;99.90
2577;DHT22;1298;51.252;6.802;2023-05-09T11:56:09;24.20;99.90
2577;DHT22;1298;51.252;6.802;2023-05-09T11:58:54;24.40;99.90
2577;DHT22;1298;51.252;6.802;2023-05-09T12:01:39;24.70;99.90
2577;DHT22;1298;51.252;6.802;2023-05-09T12:04:28;24.70;99.90
2577;DHT22;1298;51.252;6.802;2023-05-09T12:07:14;24.80;99.90
2577;DHT22;1298;51.252;6.802;2023-05-09T12:10:03;24.40;99.90
2577;DHT22;1298;51.252;6.802;2023-05-09T12:12:49;24.10;99.90
2577;DHT22;1298;51.252;6.802;2023-05-09T12:15:35;23.90;99.90
2577;DHT22;1298;51.252;6.802;2023-05-09T12:18:21;23.80;99.90
2577;DHT22;1298;51.252;6.802;2023-05-09T12:21:08;23.80;99.90
2577;DHT22;1298;51.252;6.802;2023-05-09T12:23:54;23.90;99.90
2577;DHT22;1298;51.252;6.802;2023-05-09T12:26:40;23.90;99.90
2577;DHT22;1298;51.252;6.802;2023-05-09T12:29:25;24.00;99.90
2577;DHT22;1298;51.252;6.802;2023-05-09T12:32:11;24.10;99.90
2577;DHT22;1298;51.252;6.802;2023-05-09T12:34:56;24.00;99.90
2577;DHT22;1298;51.252;6.802;2023-05-09T12:37:54;24.10;99.90
2577;DHT22;1298;51.252;6.802;2023-05-09T12:40:40;24.10;99.90
2577;DHT22;1298;51.252;6.802;2023-05-09T12:43:28;24.40;99.90
2577;DHT22;1298;51.252;6.802;2023-05-09T12:46:16;24.30;99.90
2577;DHT22;1298;51.252;6.802;2023-05-09T12:49:01;24.30;99.90
2577;DHT22;1298;51.252;6.802;2023-05-09T12:51:47;24.30;99.90
2577;DHT22;1298;51.252;6.802;2023-05-09T12:54:33;24.00;99.90
2577;DHT22;1298;51.252;6.802;2023-05-09T12:57:19;23.70;99.90
2577;DHT22;1298;51.252;6.802;2023-05-09T13:00:06;23.40;99.90
2577;DHT22;1298;51.252;6.802;2023-05-09T13:02:52;23.40;99.90
2577;DHT22;1298;51.252;6.802;2023-05-09T13:05:37;23.30;99.90
2577;DHT22;1298;51.252;6.802;2023-05-09T13:08:23;23.30;99.90
2577;DHT22;1298;51.252;6.802;2023-05-09T13:11:10;23.30;99.90
2577;DHT22;1298;51.252;6.802;2023-05-09T13:13:55;22.50;99.90
2577;DHT22;1298;51.252;6.802;2023-05-09T13:16:41;21.30;99.90
2577;DHT22;1298;51.252;6.802;2023-05-09T13:19:27;20.80;99.90
2577;DHT22;1298;51.252;6.802;2023-05-09T13:22:12;20.40;99.90
2577;DHT22;1298;51.252;6.802;2023-05-09T13:24:59;20.20;99.90
2577;DHT22;1298;51.252;6.802;2023-05-09T13:27:46;20.20;99.90
2577;DHT22;1298;51.252;6.802;2023-05-09T13:30:31;20.10;99.90
2577;DHT22;1298;51.252;6.802;2023-05-09T13:33:16;19.70;99.90
2577;DHT22;1298;51.252;6.802;2023-05-09T13:36:01;19.50;99.90
2577;DHT22;1298;51.252;6.802;2023-05-09T13:38:47;19.30;99.90
2577;DHT22;1298;51.252;6.802;2023-05-09T13:41:32;19.20;99.90
2577;DHT22;1298;51.252;6.802;2023-05-09T13:44:18;19.00;99.90
2577;DHT22;1298;51.252;6.802;2023-05-09T13:47:03;18.80;99.90
2577;DHT22;1298;51.252;6.802;2023-05-09T13:49:50;18.90;99.90
2577;DHT22;1298;51.252;6.802;2023-05-09T13:52:35;18.90;99.90
2577;DHT22;1298;51.252;6.802;2023-05-09T13:55:21;18.80;99.90
2577;DHT22;1298;51.252;6.802;2023-05-09T13:58:06;18.80;99.90
2577;DHT22;1298;51.252;6.802;2023-05-09T14:00:52;18.80;99.90
2577;DHT22;1298;51.252;6.802;2023-05-09T14:03:38;18.80;99.90
2577;DHT22;1298;51.252;6.802;2023-05-09T14:06:23;18.80;99.90
2577;DHT22;1298;51.252;6.802;2023-05-09T14:09:09;18.50;99.90
2577;DHT22;1298;51.252;6.802;2023-05-09T14:11:54;18.50;99.90
2577;DHT22;1298;51.252;6.802;2023-05-09T14:14:39;18.40;99.90
2577;DHT22;1298;51.252;6.802;2023-05-09T14:17:26;18.60;99.90
2577;DHT22;1298;51.252;6.802;2023-05-09T14:20:12;18.70;99.90
2577;DHT22;1298;51.252;6.802;2023-05-09T14:22:58;18.70;99.90
2577;DHT22;1298;51.252;6.802;2023-05-09T14:25:44;18.50;99.90
2577;DHT22;1298;51.252;6.802;2023-05-09T14:28:29;18.50;99.90
2577;DHT22;1298;51.252;6.802;2023-05-09T14:31:15;18.40;99.90
2577;DHT22;1298;51.252;6.802;2023-05-09T14:34:01;18.40;99.90
2577;DHT22;1298;51.252;6.802;2023-05-09T14:36:48;18.20;99.90
2577;DHT22;1298;51.252;6.802;2023-05-09T14:39:33;18.20;99.90
2577;DHT22;1298;51.252;6.802;2023-05-09T14:42:19;18.00;99.90
2577;DHT22;1298;51.252;6.802;2023-05-09T14:45:05;17.90;99.90
2577;DHT22;1298;51.252;6.802;2023-05-09T14:47:50;17.70;99.90
2577;DHT22;1298;51.252;6.802;2023-05-09T14:50:37;17.50;99.90
2577;DHT22;1298;51.252;6.802;2023-05-09T14:53:22;17.20;99.90
2577;DHT22;1298;51.252;6.802;2023-05-09T14:56:08;17.10;99.90
2577;DHT22;1298;51.252;6.802;2023-05-09T14:58:54;16.90;99.90
2577;DHT22;1298;51.252;6.802;2023-05-09T15:01:39;16.80;99.90
2577;DHT22;1298;51.252;6.802;2023-05-09T15:04:25;16.80;99.90
2577;DHT22;1298;51.252;6.802;2023-05-09T15:07:14;16.60;99.90
2577;DHT22;1298;51.252;6.802;2023-05-09T15:09:59;16.70;99.90
2577;DHT22;1298;51.252;6.802;2023-05-09T15:12:46;16.60;99.90
2577;DHT22;1298;51.252;6.802;2023-05-09T15:15:31;16.60;99.90
2577;DHT22;1298;51.252;6.802;2023-05-09T15:18:16;16.70;99.90
2577;DHT22;1298;51.252;6.802;2023-05-09T15:21:03;16.80;99.90
2577;DHT22;1298;51.252;6.802;2023-05-09T15:23:49;16.80;99.90
2577;DHT22;1298;51.252;6.802;2023-05-09T15:26:35;16.90;99.90
2577;DHT22;1298;51.252;6.802;2023-05-09T15:29:20;16.90;99.90
2577;DHT22;1298;51.252;6.802;2023-05-09T15:32:06;16.90;99.90
2577;DHT22;1298;51.252;6.802;2023-05-09T15:34:51;17.00;99.90
2577;DHT22;1298;51.252;6.802;2023-05-09T15:37:36;17.00;99.90
2577;DHT22;1298;51.252;6.802;2023-05-09T15:40:23;17.00;99.90
2577;DHT22;1298;51.252;6.802;2023-05-09T15:43:08;17.00;99.90
2577;DHT22;1298;51.252;6.802;2023-05-09T15:45:53;17.10;99.90
2577;DHT22;1298;51.252;6.802;2023-05-09T15:48:38;17.00;99.90
2577;DHT22;1298;51.252;6.802;2023-05-09T15:51:23;17.00;99.90
2577;DHT22;1298;51.252;6.802;2023-05-09T15:54:12;17.10;99.90
2577;DHT22;1298;51.252;6.802;2023-05-09T15:56:59;17.00;99.90
2577;DHT22;1298;51.252;6.802;2023-05-09T15:59:44;16.90;99.90
2577;DHT22;1298;51.252;6.802;2023-05-09T16:02:29;16.90;99.90
2577;DHT22;1298;51.252;6.802;2023-05-09T16:05:14;16.90;99.90
2577;DHT22;1298;51.252;6.802;2023-05-09T16:07:59;16.90;99.90
2577;DHT22;1298;51.252;6.802;2023-05-09T16:10:44;16.90;99.90
2577;DHT22;1298;51.252;6.802;2023-05-09T16:13:33;16.90;99.90
2577;DHT22;1298;51.252;6.802;2023-05-09T16:16:18;16.90;99.90
2577;DHT22;1298;51.252;6.802;2023-05-09T16:19:04;16.90;99.90
2577;DHT22;1298;51.252;6.802;2023-05-09T16:21:49;16.80;99.90
2577;DHT22;1298;51.252;6.802;2023-05-09T16:24:35;16.70;99.90
2577;DHT22;1298;51.252;6.802;2023-05-09T16:27:20;16.60;99.90
2577;DHT22;1298;51.252;6.802;2023-05-09T16:30:08;16.50;99.90
2577;DHT22;1298;51.252;6.802;2023-05-09T16:32:54;16.50;99.90
2577;DHT22;1298;51.252;6.802;2023-05-09T16:35:39;16.40;99.90
2577;DHT22;1298;51.252;6.802;2023-05-09T16:38:25;16.40;99.90
2577;DHT22;1298;51.252;6.802;2023-05-09T16:41:10;16.30;99.90
2577;DHT22;1298;51.252;6.802;2023-05-09T16:43:56;16.20;99.90
2577;DHT22;1298;51.252;6.802;2023-05-09T16:46:43;16.10;99.90
2577;DHT22;1298;51.252;6.802;2023-05-09T16:49:28;16.00;99.90
2577;DHT22;1298;51.252;6.802;2023-05-09T16:52:13;15.90;99.90
2577;DHT22;1298;51.252;6.802;2023-05-09T16:54:58;15.90;99.90
2577;DHT22;1298;51.252;6.802;2023-05-09T16:57:43;15.80;99.90
2577;DHT22;1298;51.252;6.802;2023-05-09T17:00:29;15.70;99.90
2577;DHT22;1298;51.252;6.802;2023-05-09T17:03:15;15.70;99.90
2577;DHT22;1298;51.252;6.802;2023-05-09T17:06:01;15.50;99.90
2577;DHT22;1298;51.252;6.802;2023-05-09T17:08:46;15.40;99.90
2577;DHT22;1298;51.252;6.802;2023-05-09T17:11:31;15.30;99.90
2577;DHT22;1298;51.252;6.802;2023-05-09T17:14:16;15.30;99.90
2577;DHT22;1298;51.252;6.802;2023-05-09T17:17:02;15.30;99.90
2577;DHT22;1298;51.252;6.802;2023-05-09T17:19:48;15.20;99.90
2577;DHT22;1298;51.252;6.802;2023-05-09T17:22:33;15.10;99.90
2577;DHT22;1298;51.252;6.802;2023-05-09T17:25:19;15.10;99.90
2577;DHT22;1298;51.252;6.802;2023-05-09T17:28:04;15.10;99.90
2577;DHT22;1298;51.252;6.802;2023-05-09T17:30:50;15.10;99.90
2577;DHT22;1298;51.252;6.802;2023-05-09T17:33:35;15.10;99.90
2577;DHT22;1298;51.252;6.802;2023-05-09T17:36:24;15.10;99.90
2577;DHT22;1298;51.252;6.802;2023-05-09T17:39:09;15.20;99.90
2577;DHT22;1298;51.252;6.802;2023-05-09T17:41:55;15.10;99.90
2577;DHT22;1298;51.252;6.802;2023-05-09T17:44:40;15.10;99.90
2577;DHT22;1298;51.252;6.802;2023-05-09T17:47:25;15.10;99.90
2577;DHT22;1298;51.252;6.802;2023-05-09T17:50:11;15.10;99.90
2577;DHT22;1298;51.252;6.802;2023-05-09T17:53:01;15.10;99.90
2577;DHT22;1298;51.252;6.802;2023-05-09T17:55:46;15.00;99.90
2577;DHT22;1298;51.252;6.802;2023-05-09T17:58:31;15.00;99.90
2577;DHT22;1298;51.252;6.802;2023-05-09T18:01:17;15.00;99.90
2577;DHT22;1298;51.252;6.802;2023-05-09T18:04:02;15.00;99.90
2577;DHT22;1298;51.252;6.802;2023-05-09T18:06:48;15.00;99.90
2577;DHT22;1298;51.252;6.802;2023-05-09T18:09:35;15.10;99.90
2577;DHT22;1298;51.252;6.802;2023-05-09T18:12:20;15.00;99.90